Time;durP1;ratioP1;P1;durP2;ratioP2;P2;SDS_P1;SDS_P2;PMS_P1;PMS_P2;Temp;Humidity;BMP_temperature;BMP_pressure;BME280_temperature;BME280_humidity;BME280_pressure;Samples;Min_cycle;Max_cycle;Signal;HPM_P1;HPM_P2
2021/06/20 00:00:44;;;;;;;4.13;2.88;;;;;;;18.43;73.25;94561.47;2966658;40;20082;-72
2021/06/20 00:02:46;;;;;;;28.30;4.30;;;;;;;18.49;72.74;94559.84;2966557;39;20140;-71
2021/06/20 00:04:48;;;;;;;3.45;2.90;;;;;;;18.55;72.25;94559.00;2967731;39;20100;-72
2021/06/20 00:06:51;;;;;;;4.25;3.33;;;;;;;18.61;72.35;94555.50;2966109;39;20064;-72
2021/06/20 00:08:57;;;;;;;5.53;3.30;;;;;;;18.62;72.17;94549.16;2969134;39;20554;-72
2021/06/20 00:10:58;;;;;;;3.47;2.72;;;;;;;18.60;72.33;94553.84;2970420;40;20110;-71
2021/06/20 00:13:00;;;;;;;3.47;2.80;;;;;;;18.64;72.13;94555.06;2974040;40;20058;-71
2021/06/20 00:15:05;;;;;;;3.90;3.08;;;;;;;18.61;72.01;94550.19;2971039;40;20049;-69
2021/06/20 00:17:07;;;;;;;4.97;2.72;;;;;;;18.59;72.04;94549.59;2971903;40;20050;-71
2021/06/20 00:19:08;;;;;;;6.28;2.90;;;;;;;18.61;72.01;94558.16;2972431;39;20064;-71
2021/06/20 00:21:10;;;;;;;4.82;2.75;;;;;;;18.61;71.97;94558.16;2972545;39;20402;-72
2021/06/20 00:23:12;;;;;;;5.38;3.83;;;;;;;18.51;72.73;94563.09;2971253;39;20064;-71
2021/06/20 00:25:15;;;;;;;5.15;3.65;;;;;;;18.34;73.22;94565.41;2970580;39;20051;-71
2021/06/20 00:27:17;;;;;;;4.72;3.03;;;;;;;18.28;73.39;94555.63;2969292;39;20111;-70
2021/06/20 00:29:19;;;;;;;3.55;2.97;;;;;;;18.23;73.24;94556.25;2970827;39;20060;-71
2021/06/20 00:31:20;;;;;;;4.82;2.78;;;;;;;18.18;73.19;94556.91;2967505;39;20132;-72
2021/06/20 00:33:22;;;;;;;5.63;3.30;;;;;;;18.05;73.14;94559.59;2969503;40;20063;-72
2021/06/20 00:35:24;;;;;;;8.18;3.38;;;;;;;17.81;74.64;94558.41;2971738;39;20056;-82
2021/06/20 00:37:26;;;;;;;5.78;3.40;;;;;;;17.74;75.06;94557.59;2970204;40;20062;-81
2021/06/20 00:39:28;;;;;;;4.82;3.60;;;;;;;17.64;75.03;94554.53;2976968;39;20080;-81
2021/06/20 00:41:29;;;;;;;5.05;3.35;;;;;;;17.67;75.17;94554.16;2980398;39;20056;-81
2021/06/20 00:43:31;;;;;;;5.93;3.90;;;;;;;17.64;75.01;94557.19;2979380;39;20048;-81
2021/06/20 00:45:33;;;;;;;7.22;3.65;;;;;;;17.67;75.09;94557.59;2973561;39;20052;-83
2021/06/20 00:47:35;;;;;;;5.18;3.35;;;;;;;17.71;75.08;94558.81;2976795;39;20141;-81
2021/06/20 00:49:37;;;;;;;4.50;3.60;;;;;;;17.81;74.32;94558.41;2975555;39;20054;-82
2021/06/20 00:51:40;;;;;;;4.82;3.50;;;;;;;17.87;73.83;94552.28;2973110;39;20120;-82
2021/06/20 00:53:42;;;;;;;6.88;3.35;;;;;;;17.92;73.70;94552.50;2979575;39;20056;-81
2021/06/20 00:55:44;;;;;;;3.88;3.15;;;;;;;18.00;73.68;94548.78;2973848;39;20067;-81
2021/06/20 00:57:46;;;;;;;4.88;3.05;;;;;;;18.08;73.40;94543.25;2977894;39;20405;-81
2021/06/20 00:59:51;;;;;;;6.05;3.28;;;;;;;18.13;73.24;94543.47;2974480;40;20081;-83
2021/06/20 01:01:53;;;;;;;4.60;3.70;;;;;;;18.12;73.27;94541.81;2975542;39;20532;-81
2021/06/20 01:03:55;;;;;;;6.10;3.25;;;;;;;18.14;73.30;94539.78;2976891;39;20032;-80
2021/06/20 01:05:57;;;;;;;3.30;2.80;;;;;;;18.13;73.02;94534.69;2977402;39;20135;-80
2021/06/20 01:07:59;;;;;;;4.07;2.60;;;;;;;18.14;72.91;94539.78;2975364;40;20064;-80
2021/06/20 01:10:01;;;;;;;3.78;3.00;;;;;;;18.13;72.73;94534.69;2977227;39;20059;-81
2021/06/20 01:12:03;;;;;;;4.28;2.97;;;;;;;18.13;72.97;94538.16;2971805;40;20446;-83
2021/06/20 01:14:05;;;;;;;4.72;2.83;;;;;;;18.12;72.89;94533.06;2974965;40;20040;-82
2021/06/20 01:16:07;;;;;;;3.95;2.97;;;;;;;18.13;73.01;94532.88;2970494;40;20056;-70
2021/06/20 01:18:09;;;;;;;6.00;2.60;;;;;;;18.14;72.77;94537.13;2973837;39;20479;-81
2021/06/20 01:20:14;;;;;;;3.80;3.00;;;;;;;18.16;72.37;94532.44;2977153;39;20059;-81
2021/06/20 01:22:17;;;;;;;4.60;2.75;;;;;;;18.16;72.39;94542.22;2975750;39;20434;-82
2021/06/20 01:24:19;;;;;;;6.22;2.90;;;;;;;18.19;72.22;94539.16;2976499;39;20060;-81
2021/06/20 01:26:21;;;;;;;3.70;2.97;;;;;;;18.23;71.86;94531.59;2964313;40;20102;-81
2021/06/20 01:28:27;;;;;;;6.50;3.00;;;;;;;17.94;72.96;94539.03;2977608;39;20152;-80
2021/06/20 01:30:31;;;;;;;3.92;2.85;;;;;;;17.73;73.31;94538.25;2974160;40;20107;-80
2021/06/20 01:32:35;;;;;;;4.45;3.63;;;;;;;17.23;75.15;94537.91;2974695;39;21438;-81
2021/06/20 01:34:37;;;;;;;6.22;3.65;;;;;;;17.07;76.26;94533.81;2977882;40;20048;-80
2021/06/20 01:36:38;;;;;;;6.10;3.53;;;;;;;17.10;76.11;94533.41;2976896;40;20318;-81
2021/06/20 01:38:40;;;;;;;4.32;3.30;;;;;;;17.12;75.70;94541.13;2977719;39;20485;-82
2021/06/20 01:40:42;;;;;;;7.00;3.47;;;;;;;16.67;77.53;94540.84;2973522;39;20060;-81
2021/06/20 01:42:44;;;;;;;6.10;3.78;;;;;;;16.70;78.15;94535.16;2976214;40;20443;-83
2021/06/20 01:44:54;;;;;;;4.47;3.45;;;;;;;16.85;77.29;94532.38;2972618;40;20417;-81
2021/06/20 01:46:55;;;;;;;4.63;3.28;;;;;;;17.02;76.85;94538.91;2973225;39;20060;-80
2021/06/20 01:48:58;;;;;;;5.50;3.22;;;;;;;17.19;76.06;94545.41;2977297;40;20060;-80
2021/06/20 01:50:59;;;;;;;3.55;2.92;;;;;;;17.31;75.18;94535.03;2975872;40;20161;-80
2021/06/20 01:53:04;;;;;;;3.97;3.05;;;;;;;17.40;75.08;94546.22;2971490;40;20357;-82
2021/06/20 01:55:08;;;;;;;3.47;2.83;;;;;;;17.46;74.60;94544.59;2973530;39;20064;-81
2021/06/20 01:57:09;;;;;;;3.10;2.80;;;;;;;17.47;73.77;94549.69;2973643;40;20139;-81
2021/06/20 01:59:11;;;;;;;4.63;3.03;;;;;;;17.52;73.73;94549.88;2976575;39;20063;-81
2021/06/20 02:01:16;;;;;;;4.80;2.97;;;;;;;17.57;73.55;94547.44;2970577;40;20094;-80
2021/06/20 02:03:24;;;;;;;4.57;3.03;;;;;;;17.61;73.43;94547.81;2980367;40;20047;-80
2021/06/20 02:05:25;;;;;;;5.40;2.95;;;;;;;17.66;73.50;94542.75;2980462;39;20068;-79
2021/06/20 02:07:28;;;;;;;5.88;2.88;;;;;;;17.71;73.25;94542.94;2977297;40;20051;-81
2021/06/20 02:09:29;;;;;;;5.00;2.92;;;;;;;17.77;73.00;94551.91;2979173;39;20091;-81
2021/06/20 02:11:31;;;;;;;4.53;3.35;;;;;;;17.78;72.94;94550.84;2978794;39;20068;-81
2021/06/20 02:13:33;;;;;;;3.50;2.90;;;;;;;17.78;72.85;94550.84;2978878;40;20176;-80
2021/06/20 02:15:35;;;;;;;5.50;3.08;;;;;;;17.77;72.46;94543.94;2976941;39;20147;-80
2021/06/20 02:17:38;;;;;;;3.40;2.65;;;;;;;17.76;72.69;94551.06;2975967;40;20344;-79
2021/06/20 02:19:39;;;;;;;5.70;2.90;;;;;;;17.82;72.44;94557.41;2975993;40;20059;-80
2021/06/20 02:21:41;;;;;;;3.03;2.65;;;;;;;17.85;72.42;94553.53;2969281;40;20148;-80
2021/06/20 02:23:43;;;;;;;4.38;3.17;;;;;;;17.84;72.16;94562.50;2974145;39;20345;-80
2021/06/20 02:25:45;;;;;;;4.38;2.90;;;;;;;17.80;72.46;94562.06;2971506;39;20406;-80
2021/06/20 02:27:49;;;;;;;4.28;2.92;;;;;;;17.71;72.78;94558.00;2976625;39;20107;-82
2021/06/20 02:29:53;;;;;;;6.20;3.05;;;;;;;17.70;72.86;94549.25;2975476;39;20444;-80
2021/06/20 02:31:55;;;;;;;2.80;2.45;;;;;;;17.64;73.17;94552.72;2976411;39;20758;-82
2021/06/20 02:33:57;;;;;;;4.93;2.67;;;;;;;17.60;73.34;94552.31;2977069;40;20070;-82
2021/06/20 02:36:00;;;;;;;4.95;3.50;;;;;;;17.58;73.57;94553.56;2977366;39;20063;-79
2021/06/20 02:38:02;;;;;;;4.43;3.10;;;;;;;17.60;73.36;94552.31;2977372;39;20343;-80
2021/06/20 02:40:06;;;;;;;3.25;2.83;;;;;;;17.60;73.28;94549.66;2975960;40;20059;-80
2021/06/20 02:42:08;;;;;;;4.65;2.88;;;;;;;17.64;73.18;94543.94;2976944;39;20152;-82
2021/06/20 02:44:10;;;;;;;3.50;3.10;;;;;;;17.65;73.13;94548.25;2977435;39;20355;-79
2021/06/20 02:46:11;;;;;;;5.38;2.60;;;;;;;17.69;73.14;94552.09;2975895;40;20064;-80
2021/06/20 02:48:13;;;;;;;3.92;2.85;;;;;;;17.68;73.14;94545.16;2977133;39;20068;-82
2021/06/20 02:50:16;;;;;;;6.25;3.03;;;;;;;17.70;72.95;94551.06;2977044;39;20361;-80
2021/06/20 02:52:17;;;;;;;3.45;2.88;;;;;;;17.74;73.10;94549.63;2976682;39;20056;-81
2021/06/20 02:54:19;;;;;;;5.05;2.70;;;;;;;17.72;72.80;94543.72;2977049;39;20056;-79
2021/06/20 02:56:21;;;;;;;3.78;2.70;;;;;;;17.75;72.58;94553.94;2977505;39;20546;-81
2021/06/20 02:58:23;;;;;;;3.55;2.67;;;;;;;17.75;72.58;94552.09;2983015;39;20146;-82
2021/06/20 03:00:24;;;;;;;4.43;2.40;;;;;;;17.78;72.39;94561.47;2983316;39;20080;-80
2021/06/20 03:02:26;;;;;;;3.95;2.67;;;;;;;17.78;72.04;94556.16;2983433;39;20040;-82
2021/06/20 03:04:28;;;;;;;4.40;2.50;;;;;;;17.76;71.97;94555.53;2983084;40;20091;-80
2021/06/20 03:06:29;;;;;;;4.75;2.47;;;;;;;17.78;71.89;94548.22;2979707;39;20063;-82
2021/06/20 03:08:32;;;;;;;2.90;2.33;;;;;;;17.79;72.04;94555.16;2977713;39;20056;-83
2021/06/20 03:10:33;;;;;;;3.60;2.38;;;;;;;17.77;71.88;94547.41;2977972;39;20184;-79
2021/06/20 03:12:37;;;;;;;4.53;2.47;;;;;;;17.80;71.95;94541.69;2971958;40;20390;-81
2021/06/20 03:14:40;;;;;;;2.50;2.00;;;;;;;17.81;71.58;94542.50;2967332;40;20089;-80
2021/06/20 03:16:44;;;;;;;5.90;2.28;;;;;;;17.84;71.64;94544.75;2966956;40;20056;-80
2021/06/20 03:18:47;;;;;;;3.33;2.28;;;;;;;17.88;71.50;94548.63;2968558;40;20089;-79
2021/06/20 03:20:52;;;;;;;;;;;;;;;17.91;71.54;94548.19;2969184;40;20146;-81
2021/06/20 03:22:54;;;;;;;3.10;2.10;;;;;;;17.89;71.44;94550.25;2967530;40;20033;-81
2021/06/20 03:24:56;;;;;;;4.43;2.20;;;;;;;17.91;71.14;94550.84;2967865;40;20093;-81
2021/06/20 03:26:58;;;;;;;2.80;2.10;;;;;;;17.92;71.05;94554.34;2968375;40;20079;-79
2021/06/20 03:29:00;;;;;;;5.18;2.45;;;;;;;17.97;70.85;94551.88;2969253;40;20056;-80
2021/06/20 03:31:02;;;;;;;3.10;2.55;;;;;;;17.96;70.73;94545.75;2972242;40;20432;-80
2021/06/20 03:33:04;;;;;;;5.25;2.55;;;;;;;17.98;70.61;94546.38;2971916;40;20097;-79
2021/06/20 03:35:06;;;;;;;4.10;2.63;;;;;;;18.01;70.79;94543.28;2972550;40;20056;-80
2021/06/20 03:37:08;;;;;;;4.95;2.83;;;;;;;18.04;70.75;94549.19;2970926;40;20117;-79
2021/06/20 03:39:13;;;;;;;4.38;3.17;;;;;;;18.10;70.79;94551.00;2971997;40;20476;-80
2021/06/20 03:41:15;;;;;;;4.55;3.03;;;;;;;18.13;70.62;94547.94;2974102;40;20145;-79
2021/06/20 03:43:17;;;;;;;7.15;2.70;;;;;;;18.19;70.35;94545.25;2976904;39;20060;-81
2021/06/20 03:45:19;;;;;;;3.97;2.70;;;;;;;18.22;70.26;94541.41;2976868;39;20058;-81
2021/06/20 03:47:23;;;;;;;5.30;3.08;;;;;;;18.28;70.32;94540.53;2967368;40;20137;-81
2021/06/20 03:49:25;;;;;;;4.35;2.92;;;;;;;18.31;70.40;94542.78;2976872;39;20063;-81
2021/06/20 03:51:27;;;;;;;4.82;3.28;;;;;;;18.34;70.03;94544.19;2975882;40;20052;-80
2021/06/20 03:53:31;;;;;;;4.63;2.42;;;;;;;18.36;69.81;94537.66;2975705;40;20068;-82
2021/06/20 03:55:33;;;;;;;5.63;2.85;;;;;;;18.44;69.81;94547.22;2976910;39;20513;-82
2021/06/20 03:57:35;;;;;;;5.68;2.70;;;;;;;18.50;69.52;94542.88;2976580;39;20079;-82
2021/06/20 03:59:37;;;;;;;4.43;2.80;;;;;;;18.54;69.24;94528.16;2973952;40;20070;-81
2021/06/20 04:01:39;;;;;;;3.15;2.53;;;;;;;18.58;68.98;94538.16;2976222;39;20075;-80
2021/06/20 04:03:41;;;;;;;3.75;2.60;;;;;;;18.61;68.61;94534.28;2977042;39;20063;-81
2021/06/20 04:05:43;;;;;;;7.22;2.55;;;;;;;18.68;68.51;94539.53;2968828;40;20086;-81
2021/06/20 04:07:44;;;;;;;4.53;2.42;;;;;;;18.74;67.54;94546.66;2979063;39;20058;-80
2021/06/20 04:09:46;;;;;;;3.63;2.63;;;;;;;18.76;68.19;94545.41;2978006;40;20084;-81
2021/06/20 04:11:48;;;;;;;4.53;3.50;;;;;;;18.34;69.75;94547.66;2976165;40;20113;-82
2021/06/20 04:13:49;;;;;;;4.82;3.40;;;;;;;18.18;70.33;94548.13;2972073;39;20064;-82
2021/06/20 04:15:51;;;;;;;7.35;3.28;;;;;;;18.04;71.05;94551.84;2969363;40;20054;-81
2021/06/20 04:17:53;;;;;;;9.88;3.60;;;;;;;17.97;71.67;94555.31;2969618;40;20045;-81
2021/06/20 04:19:55;;;;;;;6.80;3.30;;;;;;;17.62;72.91;94560.06;2968576;40;20063;-81
2021/06/20 04:21:57;;;;;;;5.50;3.70;;;;;;;17.61;72.83;94563.72;2969565;40;20068;-82
2021/06/20 04:23:59;;;;;;;10.65;4.22;;;;;;;17.74;72.79;94566.34;2969477;40;20066;-81
2021/06/20 04:26:00;;;;;;;4.50;3.88;;;;;;;17.24;74.48;94567.81;2969209;40;20064;-81
2021/06/20 04:28:02;;;;;;;6.50;3.65;;;;;;;16.86;76.20;94563.09;2969899;40;20346;-81
2021/06/20 04:30:05;;;;;;;9.05;4.85;;;;;;;16.84;76.96;94563.28;2975494;40;20147;-83
2021/06/20 04:32:07;;;;;;;5.57;4.82;;;;;;;17.11;76.40;94563.34;2976738;40;20075;-82
2021/06/20 04:34:08;;;;;;;5.93;4.60;;;;;;;17.33;75.84;94566.59;2977600;40;20068;-80
2021/06/20 04:36:10;;;;;;;9.13;4.50;;;;;;;17.53;75.25;94567.41;2977877;39;20148;-80
2021/06/20 04:38:12;;;;;;;7.20;4.57;;;;;;;17.55;75.53;94569.84;2977755;39;20071;-82
2021/06/20 04:40:25;;;;;;;9.27;4.90;;;;;;;17.67;75.22;94568.19;2978493;40;20075;-82
2021/06/20 04:42:33;;;;;;;9.13;6.13;;;;;;;17.82;74.57;94568.00;2970124;40;20402;-81
2021/06/20 04:44:47;;;;;;;6.97;4.90;;;;;;;17.72;74.73;94570.22;2969328;40;20077;-82
2021/06/20 04:46:48;;;;;;;7.00;5.35;;;;;;;17.74;75.22;94573.47;2968848;40;20072;-83
2021/06/20 04:48:51;;;;;;;8.65;5.90;;;;;;;17.75;75.55;94575.13;2969087;40;20325;-80
2021/06/20 04:50:53;;;;;;;6.07;5.13;;;;;;;17.68;75.38;94579.59;2969342;40;20308;-82
2021/06/20 04:52:55;;;;;;;7.35;6.05;;;;;;;17.67;75.59;94578.78;2969037;40;20067;-81
2021/06/20 04:54:57;;;;;;;7.25;4.97;;;;;;;17.91;75.09;94582.66;2968323;40;20484;-82
2021/06/20 04:56:59;;;;;;;8.63;5.93;;;;;;;17.95;74.40;94583.88;2959935;40;20060;-82
2021/06/20 04:59:00;;;;;;;5.72;5.13;;;;;;;17.96;74.50;94582.88;2968960;40;20109;-81
2021/06/20 05:01:07;;;;;;;8.52;5.15;;;;;;;18.13;73.79;94588.53;2968155;40;20052;-84
2021/06/20 05:03:09;;;;;;;8.32;5.43;;;;;;;18.27;73.52;94588.50;2973887;40;20148;-70
2021/06/20 05:05:11;;;;;;;7.75;5.18;;;;;;;18.21;73.38;94595.44;2975652;40;20280;-71
2021/06/20 05:07:13;;;;;;;6.88;5.20;;;;;;;18.36;73.16;94592.53;2976623;40;20052;-71
2021/06/20 05:09:15;;;;;;;7.30;5.28;;;;;;;18.30;73.56;94591.53;2976489;40;20095;-72
2021/06/20 05:11:17;;;;;;;8.82;5.47;;;;;;;18.40;73.41;94588.44;2976626;40;20060;-71
2021/06/20 05:13:20;;;;;;;7.78;5.18;;;;;;;18.51;73.17;94581.66;2975270;40;20063;-71
2021/06/20 05:15:22;;;;;;;5.78;4.75;;;;;;;18.65;72.45;94587.69;2975777;39;20332;-71
2021/06/20 05:17:24;;;;;;;5.78;4.85;;;;;;;18.60;72.45;94583.84;2975476;40;20058;-71
2021/06/20 05:19:26;;;;;;;5.95;4.70;;;;;;;18.79;72.39;94581.34;2974434;39;20082;-72
2021/06/20 05:21:33;;;;;;;7.10;4.20;;;;;;;18.99;71.52;94578.56;2976158;40;20136;-72
2021/06/20 05:23:35;;;;;;;8.70;5.65;;;;;;;19.16;70.86;94574.34;2976707;40;20440;-72
2021/06/20 05:25:37;;;;;;;6.13;4.28;;;;;;;19.13;70.66;94577.47;2976508;40;20357;-71
2021/06/20 05:27:38;;;;;;;12.15;4.10;;;;;;;19.19;70.73;94573.13;2975487;40;20117;-72
2021/06/20 05:29:40;;;;;;;6.30;4.75;;;;;;;19.20;70.39;94580.06;2976576;40;20151;-70
2021/06/20 05:31:42;;;;;;;6.85;4.88;;;;;;;19.13;70.62;94576.66;2975412;40;20047;-71
2021/06/20 05:33:44;;;;;;;6.95;4.07;;;;;;;18.86;70.46;94589.25;2975422;40;20424;-71
2021/06/20 05:35:47;;;;;;;5.25;4.10;;;;;;;18.93;70.24;94590.03;2976446;40;20136;-72
2021/06/20 05:37:48;;;;;;;5.28;3.70;;;;;;;18.97;69.87;94588.56;2976460;39;20442;-73
2021/06/20 05:39:50;;;;;;;6.20;4.40;;;;;;;19.17;69.85;94589.28;2975491;40;20118;-72
2021/06/20 05:41:52;;;;;;;9.32;3.75;;;;;;;19.38;68.76;94587.28;2976415;40;20146;-72
2021/06/20 05:43:54;;;;;;;5.15;3.58;;;;;;;19.40;68.70;94587.88;2975590;40;20120;-71
2021/06/20 05:45:55;;;;;;;4.65;3.65;;;;;;;19.25;68.38;94593.50;2975865;39;20063;-72
2021/06/20 05:47:57;;;;;;;10.70;3.50;;;;;;;19.28;68.49;94589.63;2976173;39;20059;-71
2021/06/20 05:49:59;;;;;;;4.07;3.53;;;;;;;19.32;68.24;94578.34;2975491;40;20116;-72
2021/06/20 05:52:01;;;;;;;4.85;3.65;;;;;;;19.26;68.54;94581.88;2976378;39;20056;-73
2021/06/20 05:54:03;;;;;;;4.75;3.38;;;;;;;19.34;68.77;94586.09;2975135;40;20088;-71
2021/06/20 05:56:05;;;;;;;4.05;3.42;;;;;;;19.33;68.51;94592.44;2976160;39;20083;-73
2021/06/20 05:58:07;;;;;;;4.50;3.28;;;;;;;19.44;68.47;94589.91;2976358;39;20055;-72
2021/06/20 06:00:10;;;;;;;5.95;4.00;;;;;;;19.57;68.29;94582.84;2974545;40;20120;-71
2021/06/20 06:02:11;;;;;;;10.32;3.95;;;;;;;19.64;67.77;94583.63;2976080;39;20460;-71
2021/06/20 06:04:13;;;;;;;3.75;3.30;;;;;;;19.65;66.68;94583.38;2976456;39;20089;-72
2021/06/20 06:06:15;;;;;;;5.10;3.22;;;;;;;19.40;66.90;94572.78;2975362;40;20076;-71
2021/06/20 06:08:17;;;;;;;4.80;3.78;;;;;;;19.13;67.53;94566.03;2976518;39;20052;-73
2021/06/20 06:10:19;;;;;;;5.53;3.53;;;;;;;19.04;68.21;94570.78;2974444;39;20059;-71
2021/06/20 06:12:23;;;;;;;6.47;3.58;;;;;;;19.26;67.31;94565.13;2976084;40;20159;-71
2021/06/20 06:14:25;;;;;;;4.90;3.60;;;;;;;19.52;66.79;94559.59;2967955;40;20052;-72
2021/06/20 06:16:27;;;;;;;6.38;3.88;;;;;;;19.75;67.03;94561.66;2967203;40;20064;-72
2021/06/20 06:18:28;;;;;;;4.40;3.60;;;;;;;19.99;66.21;94556.53;2966693;40;20141;-71
2021/06/20 06:20:30;;;;;;;7.10;3.45;;;;;;;20.12;65.42;94552.91;2967856;40;20079;-71
2021/06/20 06:22:32;;;;;;;4.95;3.42;;;;;;;20.22;65.09;94550.53;2967752;40;20088;-72
2021/06/20 06:24:33;;;;;;;5.85;3.00;;;;;;;20.27;64.00;94552.53;2966890;40;20426;-72
2021/06/20 06:26:35;;;;;;;4.18;2.97;;;;;;;20.32;63.57;94550.00;2967655;40;20148;-71
2021/06/20 06:28:37;;;;;;;4.05;2.97;;;;;;;20.39;63.47;94548.91;2958420;40;20105;-73
2021/06/20 06:30:39;;;;;;;3.50;2.90;;;;;;;20.33;64.74;94546.31;2967283;40;20449;-72
2021/06/20 06:32:45;;;;;;;6.15;4.40;;;;;;;20.15;65.71;94547.13;2970155;40;20141;-72
2021/06/20 06:34:47;;;;;;;6.97;3.42;;;;;;;19.84;66.16;94547.03;2967030;40;20064;-73
2021/06/20 06:36:51;;;;;;;4.87;3.90;;;;;;;19.94;66.56;94551.88;2970787;40;20061;-72
2021/06/20 06:38:52;;;;;;;6.55;3.40;;;;;;;20.04;65.41;94543.38;2976295;40;20310;-71
2021/06/20 06:40:54;;;;;;;5.57;3.05;;;;;;;19.64;64.68;94546.41;2975970;39;20597;-70
2021/06/20 06:42:57;;;;;;;3.88;2.80;;;;;;;19.51;65.43;94544.69;2976111;39;20096;-72
2021/06/20 06:44:59;;;;;;;4.53;2.67;;;;;;;19.49;65.48;94541.44;2975869;39;20140;-71
2021/06/20 06:47:03;;;;;;;4.57;2.95;;;;;;;19.54;64.92;94538.13;2974952;40;20056;-72
2021/06/20 06:49:05;;;;;;;2.85;2.30;;;;;;;19.70;64.37;94544.72;2976237;39;20131;-73
2021/06/20 06:51:07;;;;;;;3.40;2.70;;;;;;;19.89;64.67;94546.38;2976192;39;20117;-72
2021/06/20 06:53:08;;;;;;;2.75;2.47;;;;;;;19.69;63.32;94554.53;2976165;39;20068;-72
2021/06/20 06:55:11;;;;;;;3.95;2.42;;;;;;;19.86;63.51;94556.66;2975804;39;20129;-72
2021/06/20 06:57:12;;;;;;;4.15;2.17;;;;;;;19.88;62.73;94558.06;2975239;40;20068;-72
2021/06/20 06:59:14;;;;;;;4.38;2.13;;;;;;;19.84;62.73;94560.34;2975053;40;20068;-71
2021/06/20 07:01:16;;;;;;;2.83;1.70;;;;;;;19.86;61.82;94557.47;2974348;40;20121;-71
2021/06/20 07:03:18;;;;;;;2.60;1.95;;;;;;;19.97;61.84;94562.03;2975927;39;20062;-72
2021/06/20 07:05:20;;;;;;;2.20;1.80;;;;;;;19.88;60.77;94558.06;2975879;39;20193;-73
2021/06/20 07:07:22;;;;;;;3.15;2.35;;;;;;;20.22;60.79;94558.53;2977050;40;20056;-82
2021/06/20 07:09:24;;;;;;;3.75;1.83;;;;;;;20.13;59.40;94559.84;2977552;39;20140;-82
2021/06/20 07:11:26;;;;;;;3.10;2.15;;;;;;;20.25;59.22;94553.56;2975941;40;20092;-82
2021/06/20 07:13:28;;;;;;;4.50;2.17;;;;;;;20.39;58.48;94559.53;2968514;40;20086;-82
2021/06/20 07:15:30;;;;;;;3.88;1.60;;;;;;;20.48;56.73;94541.44;2976076;40;20128;-84
2021/06/20 07:17:34;;;;;;;2.83;1.92;;;;;;;20.48;58.59;94541.44;2976822;40;20409;-84
2021/06/20 07:19:36;;;;;;;2.75;2.03;;;;;;;20.41;58.74;94549.50;2976503;40;20067;-82
2021/06/20 07:21:38;;;;;;;5.13;1.98;;;;;;;20.49;58.72;94547.56;2976405;39;20473;-81
2021/06/20 07:23:39;;;;;;;4.13;2.08;;;;;;;20.64;59.03;94540.00;2975956;40;20113;-84
2021/06/20 07:25:41;;;;;;;3.63;1.88;;;;;;;20.86;58.09;94535.81;2976276;40;20055;-85
2021/06/20 07:27:43;;;;;;;3.90;2.15;;;;;;;20.85;57.59;94534.19;2977561;39;20338;-83
2021/06/20 07:29:47;;;;;;;3.53;2.00;;;;;;;20.92;57.16;94536.75;2976294;40;20075;-81
2021/06/20 07:31:49;;;;;;;3.47;2.10;;;;;;;20.84;57.75;94534.41;2976914;40;20070;-82
2021/06/20 07:33:51;;;;;;;2.72;2.08;;;;;;;20.92;58.49;94538.59;2976846;40;20140;-82
2021/06/20 07:35:53;;;;;;;3.33;1.85;;;;;;;21.01;57.72;94534.56;2976812;39;20075;-82
2021/06/20 07:37:55;;;;;;;5.55;2.00;;;;;;;21.23;57.24;94521.53;2977033;39;20056;-84
2021/06/20 07:39:56;;;;;;;3.35;1.85;;;;;;;21.45;56.94;94522.63;2975978;40;20118;-84
2021/06/20 07:42:00;;;;;;;3.70;1.73;;;;;;;21.26;56.58;94524.56;2977574;39;20326;-85
2021/06/20 07:44:01;;;;;;;5.30;2.38;;;;;;;21.06;57.20;94518.75;2980367;39;20063;-83
2021/06/20 07:46:03;;;;;;;3.25;2.25;;;;;;;21.01;58.78;94519.41;2980876;39;20444;-81
2021/06/20 07:48:11;;;;;;;4.63;2.00;;;;;;;21.15;57.95;94525.34;2982291;39;20420;-81
2021/06/20 07:50:13;;;;;;;2.95;2.08;;;;;;;21.22;56.38;94525.25;2986179;39;20101;-81
2021/06/20 07:52:15;;;;;;;2.75;1.83;;;;;;;21.38;56.03;94523.75;2982334;40;20056;-83
2021/06/20 07:54:17;;;;;;;3.67;2.10;;;;;;;21.24;55.47;94531.97;2976596;39;20148;-84
2021/06/20 07:56:20;;;;;;;3.17;1.90;;;;;;;21.49;55.58;94525.66;2977214;39;20390;-84
2021/06/20 07:58:22;;;;;;;3.03;1.80;;;;;;;21.72;54.97;94522.16;2977240;39;20337;-84
2021/06/20 08:00:23;;;;;;;3.47;2.15;;;;;;;21.88;54.30;94523.34;2976578;39;20170;-79
2021/06/20 08:02:25;;;;;;;4.95;1.77;;;;;;;21.67;54.40;94519.41;2976340;40;20048;-82
2021/06/20 08:04:27;;;;;;;3.83;1.90;;;;;;;21.55;54.72;94519.38;2977468;40;20070;-85
2021/06/20 08:06:28;;;;;;;2.75;1.90;;;;;;;21.38;55.18;94521.91;2977178;40;20064;-83
2021/06/20 08:08:30;;;;;;;5.55;2.10;;;;;;;21.37;55.38;94517.63;2978473;39;20149;-81
2021/06/20 08:10:32;;;;;;;3.35;1.70;;;;;;;21.65;54.85;94519.63;2977198;40;20092;-85
2021/06/20 08:12:34;;;;;;;3.22;1.80;;;;;;;21.82;54.50;94518.94;2978001;39;20048;-83
2021/06/20 08:14:37;;;;;;;2.30;1.80;;;;;;;21.73;54.33;94526.47;2976098;40;20160;-85
2021/06/20 08:16:39;;;;;;;2.70;2.20;;;;;;;21.64;53.47;94522.53;2975750;40;20456;-83
2021/06/20 08:18:41;;;;;;;2.20;1.65;;;;;;;21.61;53.70;94523.00;2976012;40;20063;-82
2021/06/20 08:20:42;;;;;;;3.13;1.90;;;;;;;21.68;53.74;94529.00;2976697;39;20052;-82
2021/06/20 08:22:44;;;;;;;4.72;1.70;;;;;;;21.42;53.53;94530.28;2976564;40;20048;-82
2021/06/20 08:24:46;;;;;;;2.53;1.58;;;;;;;21.43;54.36;94527.38;2976327;40;20108;-84
2021/06/20 08:26:48;;;;;;;3.50;1.80;;;;;;;21.41;54.24;94521.47;2976354;39;20056;-82
2021/06/20 08:28:50;;;;;;;4.38;1.70;;;;;;;21.70;54.16;94526.13;2975853;40;20063;-82
2021/06/20 08:30:52;;;;;;;3.75;1.50;;;;;;;22.04;52.55;94519.94;2975050;40;20075;-84
2021/06/20 08:32:54;;;;;;;4.72;1.48;;;;;;;22.37;52.13;94531.03;2976279;40;20067;-82
2021/06/20 08:35:00;;;;;;;2.58;1.70;;;;;;;22.52;51.73;94522.50;2976686;39;20064;-82
2021/06/20 08:37:02;;;;;;;3.03;1.70;;;;;;;22.60;51.79;94522.13;2976674;39;20063;-81
2021/06/20 08:39:05;;;;;;;3.30;2.00;;;;;;;22.39;52.34;94527.09;2967291;40;20388;-82
2021/06/20 08:41:07;;;;;;;3.97;1.85;;;;;;;22.09;52.33;94528.06;2975877;40;20060;-81
2021/06/20 08:43:10;;;;;;;2.83;1.73;;;;;;;21.98;52.75;94526.19;2976859;39;20447;-81
2021/06/20 08:45:14;;;;;;;2.30;1.70;;;;;;;22.22;52.27;94527.03;2975150;40;20816;-82
2021/06/20 08:47:17;;;;;;;3.35;1.50;;;;;;;22.25;51.75;94539.06;2975431;40;20395;-81
2021/06/20 08:49:20;;;;;;;3.33;1.63;;;;;;;22.03;50.98;94536.19;2975327;40;20405;-83
2021/06/20 08:51:22;;;;;;;3.67;1.48;;;;;;;22.03;50.24;94533.53;2975965;39;20067;-84
2021/06/20 08:53:23;;;;;;;2.08;1.40;;;;;;;21.86;50.81;94533.41;2978030;39;20144;-81
2021/06/20 08:55:25;;;;;;;2.20;1.52;;;;;;;22.09;51.26;94528.06;2977531;39;20405;-80
2021/06/20 08:57:37;;;;;;;2.83;1.35;;;;;;;22.55;50.85;94527.38;2976118;40;20095;-71
2021/06/20 08:59:39;;;;;;;1.98;1.50;;;;;;;22.87;51.46;94519.72;2975544;40;20545;-71
2021/06/20 09:01:41;;;;;;;2.58;1.75;;;;;;;22.77;51.46;94530.19;2974530;40;20460;-72
2021/06/20 09:03:45;;;;;;;2.90;1.70;;;;;;;22.90;51.16;94521.88;2975591;40;20129;-72
2021/06/20 09:06:01;;;;;;;3.60;1.58;;;;;;;22.99;51.72;94512.44;2975534;40;20056;-70
2021/06/20 09:08:13;;;;;;;2.22;1.70;;;;;;;23.33;51.74;94503.66;2975443;40;20089;-72
2021/06/20 09:10:23;;;;;;;2.30;1.55;;;;;;;23.59;51.80;94513.69;2976417;39;20056;-73
2021/06/20 09:12:27;;;;;;;2.53;1.83;;;;;;;23.73;51.82;94514.19;2975449;40;20088;-71
2021/06/20 09:14:29;;;;;;;2.67;1.58;;;;;;;23.33;51.16;94512.50;2975491;40;20131;-70
2021/06/20 09:16:31;;;;;;;2.17;1.50;;;;;;;23.43;51.72;94503.84;2974592;40;20101;-73
2021/06/20 09:18:35;;;;;;;1.92;1.45;;;;;;;23.65;51.29;94509.22;2975505;40;20444;-73
2021/06/20 09:20:38;;;;;;;2.80;1.85;;;;;;;23.86;50.03;94502.34;2967433;40;20067;-73
2021/06/20 09:22:39;;;;;;;1.92;1.42;;;;;;;24.00;49.89;94508.94;2975957;40;20540;-73
2021/06/20 09:24:41;;;;;;;3.13;1.40;;;;;;;24.12;50.08;94506.97;2976041;40;20151;-72
2021/06/20 09:26:43;;;;;;;2.10;1.48;;;;;;;24.25;49.13;94513.03;2969139;40;20399;-73
2021/06/20 09:28:48;;;;;;;3.83;1.38;;;;;;;24.24;49.01;94506.88;2968267;40;20166;-71
2021/06/20 09:30:52;;;;;;;2.67;1.40;;;;;;;23.66;48.83;94506.31;2967591;40;20415;-71
2021/06/20 09:33:14;;;;;;;2.67;1.55;;;;;;;23.42;50.10;94507.53;2967085;40;20056;-71
2021/06/20 09:35:16;;;;;;;4.03;1.45;;;;;;;23.45;49.72;94509.75;2967139;40;20076;-72
2021/06/20 09:37:20;;;;;;;2.10;1.60;;;;;;;22.40;51.04;94525.22;2969452;40;20087;-82